createdAt,value
2023-01-07T00:01:28.484Z,0.23
2023-01-07T00:03:58.665Z,0.50
2023-01-07T00:06:27.516Z,0.70
2023-01-07T00:08:56.379Z,1.07
2023-01-07T00:11:26.333Z,0.63
2023-01-07T00:13:55.322Z,1.80
2023-01-07T00:16:26.456Z,0.43
2023-01-07T00:18:55.578Z,0.67
2023-01-07T00:21:25.860Z,0.47
2023-01-07T00:23:56.422Z,0.70
2023-01-07T00:26:25.692Z,0.90
2023-01-07T00:28:54.696Z,1.40
2023-01-07T00:31:23.844Z,1.30
2023-01-07T00:34:06.979Z,0.83
2023-01-07T00:36:38.374Z,2.13
2023-01-07T00:39:07.860Z,1.00
2023-01-07T00:41:36.106Z,1.00
2023-01-07T00:44:04.520Z,1.27
2023-01-07T00:46:32.846Z,0.97
2023-01-07T00:49:01.393Z,0.70
2023-01-07T00:51:29.073Z,0.87
2023-01-07T00:53:58.105Z,0.40
2023-01-07T00:56:25.658Z,1.00
2023-01-07T00:58:53.244Z,3.50
2023-01-07T01:01:20.835Z,1.00
2023-01-07T01:03:48.541Z,0.57
2023-01-07T01:06:17.115Z,0.90
2023-01-07T01:08:47.439Z,1.80
2023-01-07T01:11:17.611Z,1.53
2023-01-07T01:13:45.996Z,1.33
2023-01-07T01:16:14.976Z,1.47
2023-01-07T01:18:42.666Z,1.27
2023-01-07T01:21:12.360Z,1.53
2023-01-07T01:23:40.266Z,1.17
2023-01-07T01:26:09.395Z,0.97
2023-01-07T01:28:38.513Z,1.13
2023-01-07T01:31:08.177Z,1.60
2023-01-07T01:33:35.920Z,1.10
2023-01-07T01:36:05.326Z,2.17
2023-01-07T01:38:32.890Z,0.60
2023-01-07T01:41:00.417Z,1.00
2023-01-07T01:43:31.416Z,2.00
2023-01-07T01:46:03.139Z,1.83
2023-01-07T01:48:31.743Z,0.80
2023-01-07T01:50:59.172Z,1.17
2023-01-07T01:53:29.924Z,1.67
2023-01-07T01:55:59.991Z,1.07
2023-01-07T01:58:31.761Z,1.27
2023-01-07T02:01:00.723Z,1.40
2023-01-07T02:03:30.367Z,1.83
2023-01-07T02:05:58.104Z,2.23
2023-01-07T02:08:25.736Z,0.83
2023-01-07T02:11:10.523Z,1.40
2023-01-07T02:13:44.651Z,1.73
2023-01-07T02:16:19.996Z,1.23
2023-01-07T02:19:08.203Z,2.03
2023-01-07T02:21:43.719Z,2.30
2023-01-07T02:24:42.125Z,1.83
2023-01-07T02:27:21.143Z,1.17
2023-01-07T02:30:18.186Z,1.37
2023-01-07T02:33:16.844Z,0.80
2023-01-07T02:39:18.927Z,1.77
2023-01-07T02:41:52.698Z,1.27
2023-01-07T02:44:25.565Z,1.33
2023-01-07T02:46:56.200Z,1.73
2023-01-07T02:49:25.277Z,1.00
2023-01-07T02:51:53.042Z,1.67
2023-01-07T02:54:23.465Z,3.53
2023-01-07T02:57:20.736Z,0.90
2023-01-07T03:00:07.273Z,1.67
2023-01-07T03:02:47.237Z,0.93
2023-01-07T03:05:29.139Z,0.90
2023-01-07T03:08:05.966Z,1.30
2023-01-07T03:10:40.554Z,0.77
2023-01-07T03:13:13.117Z,1.13
2023-01-07T03:15:44.458Z,1.30
2023-01-07T03:18:15.569Z,1.97
2023-01-07T03:20:45.556Z,2.20
2023-01-07T03:23:15.164Z,0.80
2023-01-07T03:25:45.489Z,1.03
2023-01-07T03:28:17.132Z,0.70
2023-01-07T03:30:45.245Z,1.10
2023-01-07T03:33:15.999Z,0.80
2023-01-07T03:35:47.059Z,1.70
2023-01-07T03:38:16.084Z,0.70
2023-01-07T03:40:43.750Z,0.67
2023-01-07T03:43:13.304Z,0.87
2023-01-07T03:45:41.474Z,0.77
2023-01-07T03:48:09.072Z,2.03
2023-01-07T03:50:36.749Z,0.70
2023-01-07T03:53:05.749Z,1.50
2023-01-07T03:55:33.352Z,1.63
2023-01-07T03:58:00.953Z,1.17
2023-01-07T04:00:28.582Z,1.10
2023-01-07T04:02:56.159Z,1.90
2023-01-07T04:05:23.825Z,1.53
2023-01-07T04:07:51.478Z,1.50
2023-01-07T04:10:20.561Z,1.20
2023-01-07T04:12:48.083Z,0.80
2023-01-07T04:15:15.654Z,1.40
2023-01-07T04:17:43.207Z,1.43
2023-01-07T04:20:11.196Z,0.70
2023-01-07T04:22:38.847Z,1.80
2023-01-07T04:25:07.230Z,1.40
2023-01-07T04:27:36.364Z,1.40
2023-01-07T04:30:04.105Z,1.50
2023-01-07T04:32:31.624Z,0.97
2023-01-07T04:34:59.119Z,0.70
2023-01-07T04:37:26.607Z,1.73
2023-01-07T04:39:54.179Z,1.07
2023-01-07T04:42:21.638Z,0.80
2023-01-07T04:44:50.535Z,1.20
2023-01-07T04:47:18.086Z,1.27
2023-01-07T04:49:45.616Z,1.33
2023-01-07T04:52:13.184Z,0.33
2023-01-07T04:54:40.721Z,1.87
2023-01-07T04:57:08.276Z,1.00
2023-01-07T04:59:35.868Z,1.43
2023-01-07T05:02:04.929Z,1.43
2023-01-07T05:04:32.708Z,0.90
2023-01-07T05:07:00.339Z,0.80
2023-01-07T05:09:27.797Z,1.70
2023-01-07T05:11:55.462Z,1.03
2023-01-07T05:14:23.021Z,1.53
2023-01-07T05:16:50.693Z,0.70
2023-01-07T05:19:19.732Z,1.03
2023-01-07T05:21:47.419Z,0.93
2023-01-07T05:24:14.944Z,0.87
2023-01-07T05:26:42.711Z,0.53
2023-01-07T05:29:11.336Z,1.53
2023-01-07T05:31:38.967Z,1.27
2023-01-07T05:34:06.516Z,0.83
2023-01-07T05:36:35.454Z,0.80
2023-01-07T05:39:02.961Z,0.57
2023-01-07T05:41:30.473Z,0.77
2023-01-07T05:43:58.072Z,1.27
2023-01-07T05:46:25.659Z,0.80
2023-01-07T05:48:54.158Z,1.00
2023-01-07T05:51:21.849Z,0.77
2023-01-07T05:53:50.728Z,0.77
2023-01-07T05:56:18.656Z,0.80
2023-01-07T05:58:46.173Z,1.00
2023-01-07T06:01:14.093Z,0.93
2023-01-07T06:03:41.867Z,1.03
2023-01-07T06:06:09.495Z,0.73
2023-01-07T06:08:37.915Z,0.63
2023-01-07T06:11:07.920Z,0.40
2023-01-07T06:13:35.639Z,1.83
2023-01-07T06:16:04.520Z,0.87
2023-01-07T06:18:32.457Z,0.77
2023-01-07T06:21:00.053Z,0.77
2023-01-07T06:23:27.671Z,0.73
2023-01-07T06:25:55.169Z,0.57
2023-01-07T06:28:23.938Z,0.63
2023-01-07T06:30:51.487Z,0.50
2023-01-07T06:33:19.119Z,1.13
2023-01-07T06:35:46.950Z,0.57
2023-01-07T06:38:14.480Z,0.73
2023-01-07T06:40:42.110Z,0.80
2023-01-07T06:43:09.680Z,1.30
2023-01-07T06:45:41.365Z,0.80
2023-01-07T06:48:08.984Z,0.70
2023-01-07T06:50:36.384Z,0.50
2023-01-07T06:53:03.940Z,0.60
2023-01-07T06:55:31.409Z,0.57
2023-01-07T06:57:58.907Z,0.40
2023-01-07T07:00:26.473Z,0.50
2023-01-07T07:02:55.400Z,0.47
2023-01-07T07:05:22.972Z,0.27
2023-01-07T07:07:50.464Z,0.27
2023-01-07T07:10:18.052Z,1.03
2023-01-07T07:12:45.545Z,0.70
2023-01-07T07:15:13.037Z,1.27
2023-01-07T07:17:40.449Z,0.50
2023-01-07T07:20:10.905Z,0.60
2023-01-07T07:22:38.275Z,0.90
2023-01-07T07:25:06.354Z,0.37
2023-01-07T07:27:33.743Z,1.37
2023-01-07T07:30:01.173Z,2.00
2023-01-07T07:32:28.700Z,0.87
2023-01-07T07:34:56.109Z,0.70
2023-01-07T07:37:24.820Z,0.37
2023-01-07T07:39:52.234Z,0.50
2023-01-07T07:42:19.727Z,0.80
2023-01-07T07:44:47.200Z,2.20
2023-01-07T07:47:14.670Z,0.70
2023-01-07T07:49:42.127Z,0.70
2023-01-07T07:52:09.610Z,0.50
2023-01-07T07:54:38.404Z,0.40
2023-01-07T07:57:05.930Z,1.07
2023-01-07T07:59:33.446Z,0.40
2023-01-07T08:02:00.964Z,1.10
2023-01-07T08:04:29.033Z,0.67
2023-01-07T08:06:56.595Z,0.30
2023-01-07T08:09:23.991Z,0.50
2023-01-07T08:11:52.741Z,0.57
2023-01-07T08:14:20.185Z,1.00
2023-01-07T08:16:47.697Z,0.50
2023-01-07T08:19:15.665Z,0.60
2023-01-07T08:21:43.175Z,0.40
2023-01-07T08:24:10.798Z,0.40
2023-01-07T08:26:38.255Z,0.80
2023-01-07T08:29:07.015Z,0.67
2023-01-07T08:31:34.417Z,0.27
2023-01-07T08:34:01.888Z,0.30
2023-01-07T08:36:29.347Z,0.50
2023-01-07T08:38:56.879Z,0.67
2023-01-07T08:41:25.629Z,0.60
2023-01-07T08:43:53.968Z,0.37
2023-01-07T08:46:22.990Z,0.83
2023-01-07T08:48:50.423Z,0.57
2023-01-07T08:51:17.832Z,0.50
2023-01-07T08:53:45.284Z,0.17
2023-01-07T08:56:12.700Z,0.30
2023-01-07T08:58:40.164Z,0.83
2023-01-07T09:01:08.338Z,0.23
2023-01-07T09:03:37.181Z,0.50
2023-01-07T09:06:04.701Z,0.13
2023-01-07T09:08:32.221Z,0.30
2023-01-07T09:10:59.596Z,0.20
2023-01-07T09:13:26.985Z,0.30
2023-01-07T09:15:54.369Z,0.27
2023-01-07T09:18:21.848Z,0.20
2023-01-07T09:20:50.667Z,0.00
2023-01-07T09:23:18.176Z,0.30
2023-01-07T09:25:45.548Z,0.30
2023-01-07T09:28:12.993Z,0.33
2023-01-07T09:30:40.526Z,0.10
2023-01-07T09:33:08.203Z,0.10
2023-01-07T09:35:35.696Z,0.20
2023-01-07T09:38:04.393Z,0.17
2023-01-07T09:40:33.305Z,0.20
2023-01-07T09:43:07.237Z,0.10
2023-01-07T09:45:37.436Z,0.10
2023-01-07T09:48:10.994Z,0.00
2023-01-07T09:50:45.770Z,0.37
2023-01-07T09:53:17.517Z,0.20
2023-01-07T09:56:09.975Z,0.20
2023-01-07T09:58:33.215Z,0.20
2023-01-07T10:01:06.097Z,0.40
2023-01-07T10:03:47.617Z,0.50
2023-01-07T10:06:18.093Z,0.00
2023-01-07T10:09:01.275Z,0.00
2023-01-07T10:11:37.271Z,0.40
2023-01-07T10:14:20.879Z,0.20
2023-01-07T10:16:51.625Z,0.10
2023-01-07T10:19:24.513Z,0.10
2023-01-07T10:21:54.787Z,0.07
2023-01-07T10:24:27.428Z,0.20
2023-01-07T10:26:57.720Z,0.10
2023-01-07T10:29:30.628Z,0.30
2023-01-07T10:32:00.437Z,0.20
2023-01-07T10:34:33.737Z,0.30
2023-01-07T10:37:03.712Z,0.20
2023-01-07T10:39:40.014Z,0.20
2023-01-07T10:42:12.762Z,0.37
2023-01-07T10:44:55.639Z,0.10
2023-01-07T10:47:34.298Z,0.10
2023-01-07T10:50:18.373Z,0.10
2023-01-07T10:52:49.104Z,0.93
2023-01-07T10:55:29.724Z,0.30
2023-01-07T10:57:57.138Z,0.10
2023-01-07T11:00:25.511Z,0.10
2023-01-07T11:02:56.021Z,0.10
2023-01-07T11:05:24.897Z,0.63
2023-01-07T11:07:54.363Z,0.10
2023-01-07T11:10:25.307Z,0.27
2023-01-07T11:12:55.366Z,0.20
2023-01-07T11:15:25.160Z,0.20
2023-01-07T11:17:55.298Z,0.10
2023-01-07T11:20:47.656Z,0.10
2023-01-07T11:23:30.283Z,0.10
2023-01-07T11:26:09.534Z,0.20
2023-01-07T11:28:37.638Z,0.50
2023-01-07T11:31:05.006Z,0.17
2023-01-07T11:34:03.414Z,0.10
2023-01-07T11:36:39.765Z,0.20
2023-01-07T11:39:10.452Z,0.10
2023-01-07T11:41:52.417Z,0.20
2023-01-07T11:44:20.105Z,0.10
2023-01-07T11:46:47.755Z,0.20
2023-01-07T11:49:23.463Z,0.10
2023-01-07T11:51:50.908Z,0.30
2023-01-07T11:54:21.549Z,0.00
2023-01-07T11:56:50.744Z,0.20
2023-01-07T11:59:29.336Z,0.43
2023-01-07T12:01:59.276Z,0.10
2023-01-07T12:04:28.612Z,0.17
2023-01-07T12:06:57.464Z,0.17
2023-01-07T12:09:34.825Z,0.10
2023-01-07T12:12:31.371Z,0.10
2023-01-07T12:15:00.365Z,0.10
2023-01-07T12:17:30.064Z,0.77
2023-01-07T12:20:39.011Z,1.07
2023-01-07T12:23:15.495Z,0.00
2023-01-07T12:25:48.631Z,0.20
2023-01-07T12:28:18.056Z,0.00
2023-01-07T12:31:06.730Z,0.00
2023-01-07T12:33:44.349Z,0.37
2023-01-07T12:36:16.652Z,0.37
2023-01-07T12:38:47.330Z,0.30
2023-01-07T12:41:19.651Z,0.10
2023-01-07T12:43:57.886Z,0.30
2023-01-07T12:46:27.606Z,0.13
2023-01-07T12:49:02.561Z,0.20
2023-01-07T12:51:34.402Z,0.10
2023-01-07T12:54:05.408Z,0.13
2023-01-07T12:56:35.613Z,0.20
2023-01-07T12:59:46.282Z,0.20
2023-01-07T13:02:09.547Z,0.00
2023-01-07T13:04:42.824Z,0.20
2023-01-07T13:07:15.246Z,0.10
2023-01-07T13:09:47.526Z,0.03
2023-01-07T13:12:41.719Z,0.20
2023-01-07T13:15:15.909Z,0.00
2023-01-07T13:17:43.787Z,0.20
2023-01-07T13:20:15.593Z,0.00
2023-01-07T13:22:46.320Z,0.10
2023-01-07T13:25:26.987Z,0.00
2023-01-07T13:28:14.972Z,0.00
2023-01-07T13:30:48.479Z,0.30
2023-01-07T13:33:18.942Z,0.17
2023-01-07T13:35:57.289Z,0.00
2023-01-07T13:38:39.040Z,0.20
2023-01-07T13:41:16.803Z,0.10
2023-01-07T13:43:56.624Z,0.10
2023-01-07T13:46:29.090Z,0.10
2023-01-07T13:48:56.599Z,0.00
2023-01-07T13:51:27.772Z,0.03
2023-01-07T13:53:55.151Z,0.20
2023-01-07T13:56:37.428Z,0.10
2023-01-07T13:59:05.775Z,0.30
2023-01-07T14:01:35.061Z,0.00
2023-01-07T14:04:33.875Z,0.10
2023-01-07T14:07:03.055Z,0.17
2023-01-07T14:09:35.976Z,0.10
2023-01-07T14:12:25.356Z,0.30
2023-01-07T14:14:59.512Z,0.10
2023-01-07T14:17:34.054Z,0.00
2023-01-07T14:20:05.798Z,0.40
2023-01-07T14:22:42.992Z,0.00
2023-01-07T14:25:29.541Z,0.17
2023-01-07T14:28:17.557Z,0.10
2023-01-07T14:30:46.444Z,0.20
2023-01-07T14:33:20.901Z,0.00
2023-01-07T14:35:55.280Z,0.40
2023-01-07T14:38:48.684Z,0.00
2023-01-07T14:41:16.826Z,0.10
2023-01-07T14:44:09.138Z,0.10
2023-01-07T14:46:50.746Z,0.20
2023-01-07T14:49:30.922Z,0.10
2023-01-07T14:52:02.700Z,0.00
2023-01-07T14:54:46.275Z,0.20
2023-01-07T14:57:27.137Z,0.27
2023-01-07T15:00:07.503Z,0.83
2023-01-07T15:03:02.992Z,0.20
2023-01-07T15:05:49.851Z,0.30
2023-01-07T15:08:37.598Z,0.07
2023-01-07T15:11:23.571Z,0.10
2023-01-07T15:14:14.051Z,0.20
2023-01-07T15:16:41.904Z,0.00
2023-01-07T15:19:09.863Z,0.47
2023-01-07T15:21:45.635Z,0.10
2023-01-07T15:24:16.587Z,0.73
2023-01-07T15:26:50.052Z,0.00
2023-01-07T15:29:24.436Z,0.10
2023-01-07T15:31:58.675Z,0.10
2023-01-07T15:34:28.674Z,0.20
2023-01-07T15:36:57.871Z,0.07
2023-01-07T15:39:28.345Z,0.30
2023-01-07T15:41:56.591Z,0.00
2023-01-07T15:44:29.899Z,0.10
2023-01-07T15:46:57.440Z,0.00
2023-01-07T15:49:25.448Z,0.10
2023-01-07T15:51:55.870Z,0.00
2023-01-07T15:54:27.490Z,0.13
2023-01-07T15:56:57.999Z,0.10
2023-01-07T15:59:27.462Z,0.10
2023-01-07T16:02:07.894Z,0.27
2023-01-07T16:04:38.198Z,0.10
2023-01-07T16:07:05.669Z,0.07
2023-01-07T16:09:35.010Z,0.03
2023-01-07T16:12:03.525Z,0.10
2023-01-07T16:14:37.267Z,0.10
2023-01-07T16:17:06.574Z,0.10
2023-01-07T16:19:34.364Z,0.13
2023-01-07T16:22:01.885Z,0.13
2023-01-07T16:24:29.341Z,0.10
2023-01-07T16:27:00.252Z,0.10
2023-01-07T16:29:29.461Z,0.10
2023-01-07T16:31:57.465Z,0.10
2023-01-07T16:34:57.479Z,0.10
2023-01-07T16:37:24.959Z,0.10
2023-01-07T16:39:52.997Z,0.10
2023-01-07T16:42:23.981Z,0.30
2023-01-07T16:45:00.235Z,0.07
2023-01-07T16:47:28.702Z,0.10
2023-01-07T16:49:57.543Z,0.10
2023-01-07T16:52:29.775Z,0.00
2023-01-07T16:54:57.196Z,0.20
2023-01-07T16:57:30.935Z,0.20
2023-01-07T16:59:59.733Z,0.00
2023-01-07T17:02:30.626Z,0.10
2023-01-07T17:05:11.795Z,0.20
2023-01-07T17:07:39.492Z,0.10
2023-01-07T17:10:07.356Z,0.10
2023-01-07T17:12:38.389Z,0.00
2023-01-07T17:15:29.286Z,0.10
2023-01-07T17:18:28.639Z,0.10
2023-01-07T17:20:57.440Z,0.07
2023-01-07T17:23:48.820Z,0.10
2023-01-07T17:26:20.799Z,0.10
2023-01-07T17:28:52.379Z,0.40
2023-01-07T17:31:20.504Z,0.10
2023-01-07T17:33:48.028Z,0.00
2023-01-07T17:36:17.472Z,0.10
2023-01-07T17:38:44.836Z,0.00
2023-01-07T17:41:35.160Z,0.00
2023-01-07T17:44:03.827Z,0.00
2023-01-07T17:46:31.156Z,0.07
2023-01-07T17:48:58.569Z,0.10
2023-01-07T17:51:26.528Z,0.27
2023-01-07T17:53:55.200Z,0.13
2023-01-07T17:56:22.625Z,0.60
2023-01-07T17:58:50.059Z,0.00
2023-01-07T18:01:21.188Z,0.90
2023-01-07T18:03:48.827Z,0.53
2023-01-07T18:06:18.472Z,0.20
2023-01-07T18:08:46.564Z,0.10
2023-01-07T18:11:33.965Z,0.10
2023-01-07T18:14:01.453Z,0.10
2023-01-07T18:16:30.253Z,0.10
2023-01-07T18:18:57.735Z,0.00
2023-01-07T18:21:25.326Z,0.40
2023-01-07T18:23:52.809Z,0.07
2023-01-07T18:26:20.355Z,0.07
2023-01-07T18:28:48.077Z,0.20
2023-01-07T18:31:15.617Z,0.20
2023-01-07T18:33:44.511Z,0.10
2023-01-07T18:36:12.572Z,0.03
2023-01-07T18:38:40.140Z,0.10
2023-01-07T18:41:07.514Z,0.10
2023-01-07T18:43:35.046Z,0.10
2023-01-07T18:46:03.096Z,0.10
2023-01-07T18:48:30.913Z,0.17
2023-01-07T18:50:59.649Z,0.10
2023-01-07T18:53:27.741Z,0.20
2023-01-07T18:55:59.972Z,0.03
2023-01-07T18:58:27.699Z,0.07
2023-01-07T19:00:55.400Z,0.20
2023-01-07T19:03:22.860Z,0.10
2023-01-07T19:05:50.278Z,0.10
2023-01-07T19:08:19.006Z,0.10
2023-01-07T19:10:47.763Z,0.50
2023-01-07T19:13:15.143Z,0.40
2023-01-07T19:15:42.978Z,0.10
2023-01-07T19:18:10.611Z,0.00
2023-01-07T19:20:38.005Z,0.13
2023-01-07T19:23:05.482Z,0.20
2023-01-07T19:25:34.268Z,0.10
2023-01-07T19:28:01.693Z,0.10
2023-01-07T19:30:29.094Z,0.20
2023-01-07T19:32:56.517Z,0.10
2023-01-07T19:35:23.867Z,0.00
2023-01-07T19:37:51.311Z,0.20
2023-01-07T19:40:18.813Z,0.17
2023-01-07T19:42:48.790Z,0.10
2023-01-07T19:45:16.280Z,0.20
2023-01-07T19:47:44.165Z,0.10
2023-01-07T19:50:12.012Z,0.10
2023-01-07T19:52:39.505Z,0.20
2023-01-07T19:55:08.227Z,0.20
2023-01-07T19:57:35.836Z,0.00
2023-01-07T20:00:08.172Z,2.63
2023-01-07T20:02:36.007Z,0.20
2023-01-07T20:05:03.491Z,0.10
2023-01-07T20:07:34.075Z,0.10
2023-01-07T20:10:04.461Z,0.10
2023-01-07T20:12:32.980Z,0.10
2023-01-07T20:15:00.467Z,0.40
2023-01-07T20:17:29.294Z,0.77
2023-01-07T20:19:56.714Z,0.10
2023-01-07T20:22:24.267Z,0.10
2023-01-07T20:24:51.745Z,0.20
2023-01-07T20:27:19.186Z,0.20
2023-01-07T20:29:46.696Z,0.40
2023-01-07T20:32:14.205Z,0.30
2023-01-07T20:34:43.251Z,0.10
2023-01-07T20:37:10.766Z,0.20
2023-01-07T20:39:38.196Z,0.00
2023-01-07T20:42:06.075Z,0.10
2023-01-07T20:44:34.525Z,0.20
2023-01-07T20:47:03.028Z,0.13
2023-01-07T20:49:30.418Z,0.10
2023-01-07T20:51:59.130Z,0.20
2023-01-07T20:54:26.677Z,0.10
2023-01-07T20:56:54.124Z,0.17
2023-01-07T20:59:21.593Z,0.10
2023-01-07T21:01:49.235Z,0.13
2023-01-07T21:04:16.848Z,0.10
2023-01-07T21:06:44.741Z,0.00
2023-01-07T21:09:13.720Z,0.10
2023-01-07T21:11:43.083Z,0.10
2023-01-07T21:14:10.439Z,0.13
2023-01-07T21:16:38.072Z,0.20
2023-01-07T21:19:05.550Z,0.27
2023-01-07T21:21:33.038Z,0.30
2023-01-07T21:24:00.445Z,0.10
2023-01-07T21:26:29.181Z,0.30
2023-01-07T21:28:56.835Z,0.40
2023-01-07T21:31:24.857Z,0.10
2023-01-07T21:33:54.620Z,0.00
2023-01-07T21:36:22.374Z,0.00
2023-01-07T21:38:53.636Z,0.10
2023-01-07T21:41:21.512Z,0.10
2023-01-07T21:43:50.523Z,0.07
2023-01-07T21:46:18.117Z,0.17
2023-01-07T21:48:46.997Z,0.20
2023-01-07T21:51:17.367Z,0.17
2023-01-07T21:53:44.941Z,0.17
2023-01-07T21:56:14.915Z,0.30
2023-01-07T21:58:43.189Z,0.27
2023-01-07T22:01:13.202Z,0.40
2023-01-07T22:03:41.213Z,0.47
2023-01-07T22:06:11.503Z,0.20
2023-01-07T22:08:39.027Z,0.23
2023-01-07T22:11:06.577Z,0.10
2023-01-07T22:13:34.030Z,0.30
2023-01-07T22:16:01.486Z,0.10
2023-01-07T22:18:30.214Z,0.20
2023-01-07T22:20:57.668Z,0.20
2023-01-07T22:23:25.129Z,0.10
2023-01-07T22:25:52.695Z,0.13
2023-01-07T22:28:23.062Z,0.10
2023-01-07T22:30:54.104Z,0.00
2023-01-07T22:33:22.475Z,0.57
2023-01-07T22:35:51.416Z,0.10
2023-01-07T22:38:19.312Z,0.30
2023-01-07T22:40:46.723Z,0.30
2023-01-07T22:43:15.974Z,0.10
2023-01-07T22:45:45.370Z,0.20
2023-01-07T22:48:14.852Z,0.10
2023-01-07T22:50:42.350Z,0.10
2023-01-07T22:53:12.003Z,0.30
2023-01-07T22:55:40.519Z,0.60
2023-01-07T22:58:07.978Z,0.10
2023-01-07T23:00:42.984Z,0.10
2023-01-07T23:03:10.530Z,0.10
2023-01-07T23:05:39.793Z,0.20
2023-01-07T23:08:08.116Z,0.20
2023-01-07T23:10:38.236Z,0.20
2023-01-07T23:13:09.019Z,0.10
2023-01-07T23:15:37.994Z,0.40
2023-01-07T23:18:07.065Z,0.20
2023-01-07T23:20:35.348Z,0.20
2023-01-07T23:23:02.686Z,0.10
2023-01-07T23:25:30.146Z,0.20
2023-01-07T23:27:58.857Z,0.10
2023-01-07T23:30:26.196Z,0.00
2023-01-07T23:32:53.513Z,0.20
2023-01-07T23:35:20.984Z,0.47
2023-01-07T23:37:48.331Z,1.07
2023-01-07T23:40:17.755Z,0.10
2023-01-07T23:42:46.095Z,0.90
2023-01-07T23:45:14.925Z,0.20
2023-01-07T23:47:42.290Z,0.27
2023-01-07T23:50:10.208Z,0.57
2023-01-07T23:52:37.572Z,0.10
2023-01-07T23:55:05.817Z,0.23
2023-01-07T23:57:33.260Z,0.20
